createdAt,value
2019-04-04T00:03:15.424Z,22.48
2019-04-04T00:05:19.026Z,23.38
2019-04-04T00:09:25.505Z,22.70
2019-04-04T00:13:31.982Z,22.40
2019-04-04T00:15:35.638Z,23.18
2019-04-04T00:19:42.176Z,22.67
2019-04-04T00:21:45.858Z,21.27
2019-04-04T00:23:49.442Z,22.45
2019-04-04T00:27:55.987Z,22.42
2019-04-04T00:32:02.428Z,21.95
2019-04-04T00:36:09.082Z,21.23
2019-04-04T00:38:12.662Z,22.77
2019-04-04T00:42:19.217Z,21.27
2019-04-04T00:44:23.143Z,21.95
2019-04-04T00:46:29.042Z,21.05
2019-04-04T00:48:34.259Z,22.07
2019-04-04T00:50:37.814Z,21.77
2019-04-04T00:54:45.478Z,20.48
2019-04-04T00:56:49.321Z,21.12
2019-04-04T00:58:52.980Z,21.23
2019-04-04T01:02:59.467Z,21.57
2019-04-04T01:07:05.955Z,21.57
2019-04-04T01:11:14.082Z,20.90
2019-04-04T01:13:17.680Z,21.23
2019-04-04T01:17:24.321Z,20.48
2019-04-04T01:19:27.904Z,20.65
2019-04-04T01:23:34.391Z,21.05
2019-04-04T01:25:37.976Z,19.87
2019-04-04T01:29:44.441Z,20.37
2019-04-04T01:33:51.724Z,20.70
2019-04-04T01:35:55.344Z,20.08
2019-04-04T01:40:05.946Z,20.08
2019-04-04T01:42:09.871Z,20.68
2019-04-04T01:44:13.494Z,20.12
2019-04-04T01:46:17.106Z,21.82
2019-04-04T01:50:23.526Z,20.27
2019-04-04T01:54:32.130Z,19.80
2019-04-04T01:56:37.049Z,20.08
2019-04-04T01:58:42.009Z,19.87
2019-04-04T02:00:46.596Z,20.70
2019-04-04T02:02:51.906Z,20.82
2019-04-04T02:04:55.871Z,20.85
2019-04-04T02:07:00.054Z,20.88
2019-04-04T02:11:08.174Z,21.52
2019-04-04T02:15:15.037Z,21.85
2019-04-04T02:17:20.046Z,21.95
2019-04-04T02:19:24.843Z,22.60
2019-04-04T02:21:29.283Z,24.27
2019-04-04T02:23:32.931Z,22.80
2019-04-04T02:27:39.335Z,20.75
2019-04-04T02:31:47.793Z,20.30
2019-04-04T02:33:51.435Z,21.27
2019-04-04T02:37:58.023Z,20.75
2019-04-04T02:40:01.635Z,20.05
2019-04-04T02:44:08.490Z,21.05
2019-04-04T02:46:12.423Z,21.52
2019-04-04T02:48:16.187Z,22.00
2019-04-04T02:50:19.827Z,21.80
2019-04-04T02:54:26.268Z,21.23
2019-04-04T02:58:32.782Z,20.15
2019-04-04T03:02:39.221Z,19.70
2019-04-04T03:06:47.416Z,20.70
2019-04-04T03:08:51.086Z,21.12
2019-04-04T03:12:58.486Z,20.10
2019-04-04T03:15:02.922Z,20.92
2019-04-04T03:17:06.688Z,20.05
2019-04-04T03:19:11.295Z,20.55
2019-04-04T03:21:15.050Z,20.85
2019-04-04T03:25:21.472Z,19.85
2019-04-04T03:29:29.678Z,19.52
2019-04-04T03:33:37.725Z,20.15
2019-04-04T03:37:46.165Z,19.62
2019-04-04T03:39:52.013Z,20.32
2019-04-04T03:41:54.699Z,19.02
2019-04-04T03:46:01.691Z,19.65
2019-04-04T03:48:05.448Z,18.45
2019-04-04T03:52:12.003Z,19.70
2019-04-04T03:56:20.035Z,19.30
2019-04-04T04:00:29.720Z,19.00
2019-04-04T04:02:33.286Z,20.20
2019-04-04T04:06:42.002Z,19.67
2019-04-04T04:08:45.026Z,19.17
2019-04-04T04:12:51.449Z,19.70
2019-04-04T04:16:59.002Z,19.65
2019-04-04T04:21:09.786Z,17.50
2019-04-04T04:23:10.699Z,20.55
2019-04-04T04:27:17.166Z,18.12
2019-04-04T04:31:23.544Z,19.15
2019-04-04T04:35:31.687Z,18.77
2019-04-04T04:39:41.189Z,19.57
2019-04-04T04:41:43.385Z,18.23
2019-04-04T04:45:49.810Z,19.17
2019-04-04T04:49:57.942Z,18.23
2019-04-04T04:54:04.431Z,18.32
2019-04-04T04:56:08.126Z,19.20
2019-04-04T04:58:11.711Z,19.15
2019-04-04T05:02:22.109Z,20.52
2019-04-04T05:04:27.865Z,19.30
2019-04-04T05:06:30.463Z,20.57
2019-04-04T05:10:37.007Z,19.35
2019-04-04T05:12:40.591Z,19.80
2019-04-04T05:16:46.938Z,19.12
2019-04-04T05:20:53.359Z,17.70
2019-04-04T05:25:08.034Z,18.07
2019-04-04T05:27:06.163Z,18.65
2019-04-04T05:29:13.253Z,18.15
2019-04-04T05:31:17.864Z,18.82
2019-04-04T05:33:22.801Z,17.55
2019-04-04T05:35:26.134Z,18.02
2019-04-04T05:39:32.595Z,18.07
2019-04-04T05:41:37.430Z,16.40
2019-04-04T05:43:41.224Z,16.70
2019-04-04T05:47:49.351Z,16.77
2019-04-04T05:51:55.749Z,15.95
2019-04-04T05:56:02.139Z,17.57
2019-04-04T06:00:11.354Z,15.50
2019-04-04T06:02:14.918Z,16.10
2019-04-04T06:08:25.777Z,16.97
2019-04-04T06:12:32.306Z,16.00
2019-04-04T06:16:38.774Z,16.77
2019-04-04T06:22:52.015Z,15.78
2019-04-04T06:24:59.098Z,15.15
2019-04-04T06:27:01.402Z,15.70
2019-04-04T06:31:09.537Z,16.17
2019-04-04T06:35:16.171Z,14.85
2019-04-04T06:37:20.034Z,14.28
2019-04-04T06:39:25.242Z,14.53
2019-04-04T06:41:32.023Z,13.83
2019-04-04T06:43:34.620Z,14.03
2019-04-04T06:47:40.999Z,14.10
2019-04-04T06:53:53.783Z,13.05
2019-04-04T06:55:58.181Z,13.43
2019-04-04T06:58:02.442Z,13.58
2019-04-04T07:02:12.018Z,13.70
2019-04-04T07:06:20.226Z,13.43
2019-04-04T07:08:23.887Z,12.65
2019-04-04T07:12:30.409Z,13.25
2019-04-04T07:16:38.569Z,13.38
2019-04-04T07:18:43.079Z,12.55
2019-04-04T07:20:48.349Z,12.40
2019-04-04T07:22:55.626Z,13.15
2019-04-04T07:25:00.805Z,12.70
2019-04-04T07:27:03.093Z,12.82
2019-04-04T07:31:09.616Z,12.13
2019-04-04T07:35:17.174Z,12.58
2019-04-04T07:37:22.158Z,12.33
2019-04-04T07:39:26.398Z,11.65
2019-04-04T07:43:32.800Z,11.90
2019-04-04T07:47:39.353Z,12.50
2019-04-04T07:49:42.937Z,12.28
2019-04-04T07:53:49.493Z,11.75
2019-04-04T07:57:55.904Z,12.23
2019-04-04T08:02:02.305Z,11.80
2019-04-04T08:06:10.574Z,11.25
2019-04-04T08:10:20.740Z,12.47
2019-04-04T08:12:22.456Z,11.88
2019-04-04T08:16:29.002Z,11.30
2019-04-04T08:20:35.398Z,10.85
2019-04-04T08:22:39.827Z,11.93
2019-04-04T08:24:43.594Z,12.60
2019-04-04T08:28:50.018Z,12.53
2019-04-04T08:32:56.391Z,12.05
2019-04-04T08:37:02.810Z,11.90
2019-04-04T08:41:11.687Z,11.78
2019-04-04T08:43:15.348Z,12.18
2019-04-04T08:47:21.778Z,10.90
2019-04-04T08:51:28.215Z,11.97
2019-04-04T08:57:39.306Z,10.70
2019-04-04T09:01:48.710Z,11.12
2019-04-04T09:03:52.296Z,10.53
2019-04-04T09:07:58.703Z,10.05
2019-04-04T09:10:02.315Z,10.80
2019-04-04T09:14:08.759Z,10.93
2019-04-04T09:18:15.385Z,11.28
2019-04-04T09:20:19.235Z,11.12
2019-04-04T09:22:24.277Z,10.65
2019-04-04T09:24:28.065Z,11.22
2019-04-04T09:28:34.516Z,10.10
2019-04-04T09:30:38.198Z,10.53
2019-04-04T09:34:44.642Z,11.03
2019-04-04T09:38:51.099Z,11.35
2019-04-04T09:42:57.518Z,10.35
2019-04-04T09:47:05.548Z,10.18
2019-04-04T09:49:09.239Z,10.23
2019-04-04T09:51:12.818Z,10.28
2019-04-04T09:55:19.310Z,10.75
2019-04-04T09:57:22.906Z,10.68
2019-04-04T10:01:29.306Z,9.60
2019-04-04T10:05:36.427Z,9.95
2019-04-04T10:07:40.276Z,9.60
2019-04-04T10:09:43.861Z,9.13
2019-04-04T10:13:50.239Z,9.58
2019-04-04T10:17:56.663Z,10.00
2019-04-04T10:22:03.166Z,10.78
2019-04-04T10:24:06.737Z,8.08
2019-04-04T10:28:13.215Z,10.18
2019-04-04T10:30:17.274Z,9.93
2019-04-04T10:32:20.862Z,8.98
2019-04-04T10:36:27.267Z,7.75
2019-04-04T10:40:33.718Z,7.37
2019-04-04T10:42:37.324Z,6.97
2019-04-04T10:46:43.740Z,6.78
2019-04-04T10:50:50.215Z,8.70
2019-04-04T10:52:53.821Z,7.25
2019-04-04T10:57:00.212Z,8.60
2019-04-04T11:01:06.620Z,7.97
2019-04-04T11:05:14.735Z,7.75
2019-04-04T11:07:18.312Z,7.90
2019-04-04T11:11:24.783Z,6.97
2019-04-04T11:13:33.829Z,6.70
2019-04-04T11:15:33.578Z,7.05
2019-04-04T11:19:43.186Z,7.53
2019-04-04T11:21:45.429Z,7.90
2019-04-04T11:25:51.869Z,7.50
2019-04-04T11:27:55.482Z,7.58
2019-04-04T11:32:01.933Z,7.17
2019-04-04T11:34:05.516Z,6.28
2019-04-04T11:38:11.907Z,6.35
2019-04-04T11:42:18.359Z,7.47
2019-04-04T11:46:24.830Z,7.15
2019-04-04T11:50:31.251Z,6.62
2019-04-04T11:52:34.814Z,6.05
2019-04-04T11:56:42.901Z,6.67
2019-04-04T11:58:46.498Z,6.72
2019-04-04T12:03:00.283Z,6.37
2019-04-04T12:07:07.810Z,6.72
2019-04-04T12:09:11.479Z,6.72
2019-04-04T12:11:15.045Z,6.28
2019-04-04T12:15:21.513Z,6.65
2019-04-04T12:19:27.930Z,6.55
2019-04-04T12:21:31.587Z,6.72
2019-04-04T12:23:35.379Z,5.97
2019-04-04T12:25:39.104Z,6.30
2019-04-04T12:27:42.654Z,6.80
2019-04-04T12:31:49.076Z,6.55
2019-04-04T12:35:55.541Z,6.30
2019-04-04T12:37:59.163Z,6.78
2019-04-04T12:40:02.805Z,6.55
2019-04-04T12:42:06.926Z,6.33
2019-04-04T12:44:10.581Z,7.35
2019-04-04T12:46:14.247Z,6.70
2019-04-04T12:48:17.868Z,6.78
2019-04-04T12:50:21.450Z,6.78
2019-04-04T12:54:27.869Z,6.30
2019-04-04T12:58:34.319Z,6.33
2019-04-04T13:00:39.233Z,6.40
2019-04-04T13:02:42.895Z,6.28
2019-04-04T13:04:46.493Z,5.97
2019-04-04T13:06:50.143Z,6.33
2019-04-04T13:08:53.734Z,6.28
2019-04-04T13:13:00.163Z,6.58
2019-04-04T13:17:06.810Z,6.37
2019-04-04T13:19:10.391Z,5.90
2019-04-04T13:23:16.842Z,6.15
2019-04-04T13:27:23.262Z,5.92
2019-04-04T13:31:29.670Z,6.25
2019-04-04T13:35:37.938Z,5.83
2019-04-04T13:37:41.380Z,6.08
2019-04-04T13:41:47.915Z,6.00
2019-04-04T13:43:53.432Z,5.80
2019-04-04T13:45:56.751Z,6.87
2019-04-04T13:48:00.398Z,6.33
2019-04-04T13:50:06.446Z,6.00
2019-04-04T13:52:11.675Z,6.60
2019-04-04T13:54:15.412Z,6.25
2019-04-04T13:56:19.086Z,7.28
2019-04-04T13:58:22.961Z,6.95
2019-04-04T14:00:26.729Z,7.10
2019-04-04T14:02:30.491Z,7.33
2019-04-04T14:04:34.187Z,7.35
2019-04-04T14:06:38.271Z,6.20
2019-04-04T14:08:42.045Z,5.75
2019-04-04T14:10:57.269Z,7.00
2019-04-04T14:12:50.860Z,6.05
2019-04-04T14:16:57.341Z,6.30
2019-04-04T14:19:01.143Z,5.78
2019-04-04T14:21:04.864Z,6.25
2019-04-04T14:23:08.437Z,5.58
2019-04-04T14:27:15.020Z,6.15
2019-04-04T14:29:27.350Z,6.55
2019-04-04T14:31:23.851Z,5.92
2019-04-04T14:33:27.427Z,6.05
2019-04-04T14:37:33.828Z,6.58
2019-04-04T14:41:40.271Z,6.37
2019-04-04T14:43:43.845Z,6.45
2019-04-04T14:47:50.283Z,6.58
2019-04-04T14:51:56.700Z,6.90
2019-04-04T14:56:03.196Z,6.40
2019-04-04T14:58:06.802Z,6.20
2019-04-04T15:02:15.397Z,5.87
2019-04-04T15:04:19.003Z,7.28
2019-04-04T15:08:25.400Z,5.90
2019-04-04T15:12:31.872Z,6.45
2019-04-04T15:16:38.415Z,6.83
2019-04-04T15:18:42.062Z,6.97
2019-04-04T15:20:45.652Z,7.25
2019-04-04T15:24:52.238Z,6.53
2019-04-04T15:26:55.907Z,7.30
2019-04-04T15:28:59.529Z,7.00
2019-04-04T15:33:06.046Z,7.20
2019-04-04T15:35:09.808Z,6.90
2019-04-04T15:37:13.402Z,6.80
2019-04-04T15:41:19.906Z,6.67
2019-04-04T15:43:23.515Z,7.35
2019-04-04T15:47:30.274Z,7.80
2019-04-04T15:49:33.924Z,7.97
2019-04-04T15:51:37.572Z,7.67
2019-04-04T15:53:41.157Z,8.45
2019-04-04T15:57:47.584Z,7.97
2019-04-04T15:59:51.198Z,7.78
2019-04-04T16:03:57.693Z,7.50
2019-04-04T16:06:01.370Z,8.20
2019-04-04T16:08:05.035Z,8.25
2019-04-04T16:10:09.116Z,7.70
2019-04-04T16:12:12.710Z,7.85
2019-04-04T16:16:19.153Z,7.20
2019-04-04T16:20:25.699Z,7.97
2019-04-04T16:22:29.348Z,8.30
2019-04-04T16:24:32.931Z,8.00
2019-04-04T16:28:39.402Z,7.83
2019-04-04T16:32:45.811Z,7.50
2019-04-04T16:36:52.301Z,8.15
2019-04-04T16:41:00.397Z,7.80
2019-04-04T16:43:04.258Z,7.78
2019-04-04T16:45:08.344Z,8.90
2019-04-04T16:47:11.929Z,10.75
2019-04-04T16:51:18.342Z,16.42
2019-04-04T16:55:24.719Z,12.18
2019-04-04T16:59:31.190Z,9.45
2019-04-04T17:03:37.744Z,8.30
2019-04-04T17:07:44.159Z,8.38
2019-04-04T17:09:47.906Z,8.70
2019-04-04T17:11:51.518Z,9.05
2019-04-04T17:15:57.969Z,9.23
2019-04-04T17:20:06.604Z,9.30
2019-04-04T17:22:10.217Z,9.93
2019-04-04T17:26:16.631Z,10.45
2019-04-04T17:30:23.198Z,10.30
2019-04-04T17:32:27.196Z,10.15
2019-04-04T17:34:30.853Z,9.35
2019-04-04T17:38:37.534Z,11.15
2019-04-04T17:42:44.079Z,10.15
2019-04-04T17:44:49.260Z,9.88
2019-04-04T17:46:52.856Z,9.58
2019-04-04T17:50:59.745Z,10.43
2019-04-04T17:53:03.451Z,11.22
2019-04-04T17:55:08.073Z,12.28
2019-04-04T17:57:13.167Z,11.68
2019-04-04T17:59:16.747Z,12.15
2019-04-04T18:03:23.155Z,13.10
2019-04-04T18:07:29.550Z,18.55
2019-04-04T18:11:36.027Z,22.85
2019-04-04T18:15:42.590Z,20.23
2019-04-04T18:19:49.034Z,21.35
2019-04-04T18:23:55.689Z,19.27
2019-04-04T18:25:59.265Z,16.32
2019-04-04T18:30:08.767Z,12.13
2019-04-04T18:32:12.432Z,13.32
2019-04-04T18:36:19.629Z,12.05
2019-04-04T18:38:23.298Z,11.40
2019-04-04T18:42:29.782Z,11.12
2019-04-04T18:46:37.776Z,11.60
2019-04-04T18:50:44.354Z,12.03
2019-04-04T18:54:50.746Z,12.25
2019-04-04T18:58:57.235Z,14.68
2019-04-04T19:01:01.042Z,21.65
2019-04-04T19:03:04.862Z,17.82
2019-04-04T19:05:08.900Z,16.85
2019-04-04T19:07:12.622Z,16.60
2019-04-04T19:09:16.238Z,16.85
2019-04-04T19:13:22.899Z,17.87
2019-04-04T19:15:26.552Z,19.87
2019-04-04T19:17:30.299Z,16.75
2019-04-04T19:19:34.019Z,15.13
2019-04-04T19:23:49.033Z,15.63
2019-04-04T19:25:45.745Z,14.60
2019-04-04T19:29:52.242Z,16.07
2019-04-04T19:33:58.790Z,15.68
2019-04-04T19:36:02.363Z,18.20
2019-04-04T19:38:06.021Z,19.57
2019-04-04T19:42:12.975Z,19.73
2019-04-04T19:44:16.635Z,14.28
2019-04-04T19:48:23.045Z,15.18
2019-04-04T19:50:26.627Z,15.05
2019-04-04T19:54:33.130Z,15.00
2019-04-04T19:58:39.627Z,13.50
2019-04-04T20:02:46.136Z,14.03
2019-04-04T20:06:52.891Z,14.23
2019-04-04T20:08:56.724Z,13.60
2019-04-04T20:11:02.417Z,13.22
2019-04-04T20:13:05.982Z,13.22
2019-04-04T20:17:12.602Z,12.28
2019-04-04T20:21:19.121Z,12.10
2019-04-04T20:25:25.568Z,12.37
2019-04-04T20:29:32.011Z,11.63
2019-04-04T20:33:38.439Z,11.35
2019-04-04T20:35:42.097Z,12.10
2019-04-04T20:39:48.546Z,11.85
2019-04-04T20:43:55.160Z,11.43
2019-04-04T20:48:01.566Z,11.85
2019-04-04T20:52:08.963Z,12.43
2019-04-04T20:54:12.671Z,14.65
2019-04-04T20:56:16.387Z,13.50
2019-04-04T20:58:20.034Z,13.93
2019-04-04T21:02:26.445Z,13.32
2019-04-04T21:04:30.157Z,14.15
2019-04-04T21:06:33.807Z,13.32
2019-04-04T21:10:40.313Z,14.00
2019-04-04T21:14:46.933Z,14.50
2019-04-04T21:16:50.495Z,14.28
2019-04-04T21:20:56.982Z,13.58
2019-04-04T21:25:03.745Z,14.98
2019-04-04T21:27:07.319Z,14.80
2019-04-04T21:29:10.898Z,14.10
2019-04-04T21:33:17.264Z,14.47
2019-04-04T21:35:20.861Z,14.45
2019-04-04T21:39:29.683Z,14.60
2019-04-04T21:41:32.486Z,14.63
2019-04-04T21:43:36.154Z,14.45
2019-04-04T21:47:42.574Z,15.20
2019-04-04T21:49:46.218Z,14.63
2019-04-04T21:53:52.702Z,14.65
2019-04-04T21:57:59.127Z,15.68
2019-04-04T22:02:05.945Z,15.90
2019-04-04T22:04:09.518Z,15.08
2019-04-04T22:08:15.947Z,16.20
2019-04-04T22:12:22.523Z,16.27
2019-04-04T22:16:29.040Z,16.73
2019-04-04T22:20:35.646Z,15.75
2019-04-04T22:22:39.286Z,16.15
2019-04-04T22:26:45.855Z,15.60
2019-04-04T22:30:52.457Z,15.50
2019-04-04T22:34:59.169Z,16.75
2019-04-04T22:37:02.741Z,16.02
2019-04-04T22:43:13.449Z,17.17
2019-04-04T22:47:19.994Z,18.25
2019-04-04T22:51:26.485Z,17.77
2019-04-04T22:55:32.939Z,19.67
2019-04-04T22:59:39.354Z,18.00
2019-04-04T23:03:45.741Z,19.23
2019-04-04T23:07:52.342Z,20.30
2019-04-04T23:09:55.938Z,20.45
2019-04-04T23:14:02.424Z,20.10
2019-04-04T23:18:08.870Z,19.50
2019-04-04T23:22:15.346Z,18.87
2019-04-04T23:26:21.722Z,19.77
2019-04-04T23:30:28.193Z,19.62
2019-04-04T23:34:34.553Z,20.25
2019-04-04T23:38:40.957Z,19.25
2019-04-04T23:42:50.573Z,19.70
2019-04-04T23:45:00.957Z,20.00
2019-04-04T23:46:59.369Z,19.30
2019-04-04T23:51:05.769Z,18.62
2019-04-04T23:55:12.352Z,19.67
2019-04-04T23:57:16.092Z,18.87
2019-04-04T23:59:19.689Z,19.90
